Time,TemperatureF,DewpointF,PressureIn,WindDirection,WindDirectionDegrees,WindSpeedMPH,WindSpeedGustMPH,Humidity,HourlyPrecipIn,Conditions,Clouds,dailyrainin,SoftwareType,DateUTC
2013-05-25 00:01:00,41.2,27.6,29.87,West,270,0.0,-999.0,58,-99.99,,,0.00,Acu-Link.com,2013-05-25 06:01:00,
2013-05-25 00:16:00,39.7,27.0,29.87,North,0,0.0,-999.0,60,-99.99,,,0.00,Acu-Link.com,2013-05-25 06:16:00,
2013-05-25 00:31:00,38.1,27.8,29.87,ENE,67,2.7,-999.0,66,-99.99,,,0.00,Acu-Link.com,2013-05-25 06:31:00,
2013-05-25 00:46:00,37.2,26.9,29.87,NNE,22,2.7,-999.0,66,-99.99,,,0.00,Acu-Link.com,2013-05-25 06:46:00,
2013-05-25 01:02:00,37.8,27.5,29.88,SW,225,0.0,-999.0,66,-99.99,,,0.00,Acu-Link.com,2013-05-25 07:02:00,
2013-05-25 01:17:00,34.3,25.6,29.87,NE,45,4.7,-999.0,70,-99.99,,,0.00,Acu-Link.com,2013-05-25 07:17:00,
2013-05-25 01:32:00,35.8,26.3,29.88,West,270,3.7,-999.0,68,-99.99,,,0.00,Acu-Link.com,2013-05-25 07:32:00,
2013-05-25 01:47:00,37.2,26.2,29.88,NNW,337,2.7,-999.0,64,-99.99,,,0.00,Acu-Link.com,2013-05-25 07:47:00,
2013-05-25 02:03:00,35.4,26.3,29.88,ENE,67,0.0,-999.0,69,-99.99,,,0.00,Acu-Link.com,2013-05-25 08:03:00,
2013-05-25 02:18:00,34.7,25.6,29.88,WNW,292,0.0,-999.0,69,-99.99,,,0.00,Acu-Link.com,2013-05-25 08:18:00,
2013-05-25 02:33:00,34.3,26.9,29.89,NE,45,0.0,-999.0,74,-99.99,,,0.00,Acu-Link.com,2013-05-25 08:33:00,
2013-05-25 02:49:00,33.1,25.7,29.88,NNE,22,0.0,-999.0,74,-99.99,,,0.00,Acu-Link.com,2013-05-25 08:49:00,
2013-05-25 03:04:00,32.5,30.7,29.88,West,270,2.2,-999.0,93,-99.99,,,0.00,Acu-Link.com,2013-05-25 09:04:00,
2013-05-25 03:20:00,32.7,31.2,29.88,NE,45,1.1,-999.0,94,-99.99,,,0.00,Acu-Link.com,2013-05-25 09:20:00,
2013-05-25 03:35:00,32.7,30.1,29.88,West,270,0.0,-999.0,90,-99.99,,,0.00,Acu-Link.com,2013-05-25 09:35:00,
2013-05-25 03:50:00,30.6,27.5,29.90,WNW,292,0.0,-999.0,88,-99.99,,,0.00,Acu-Link.com,2013-05-25 09:50:00,
2013-05-25 04:06:00,30.2,28.9,29.89,East,90,2.2,-999.0,95,-99.99,,,0.00,Acu-Link.com,2013-05-25 10:06:00,
2013-05-25 04:21:00,29.3,28.3,29.90,NE,45,0.0,-999.0,96,-99.99,,,0.00,Acu-Link.com,2013-05-25 10:21:00,
2013-05-25 04:36:00,30.2,27.6,29.90,WNW,292,0.0,-999.0,90,-99.99,,,0.00,Acu-Link.com,2013-05-25 10:36:00,
2013-05-25 04:51:00,29.7,26.6,29.91,WSW,247,2.7,-999.0,88,-99.99,,,0.00,Acu-Link.com,2013-05-25 10:51:00,
2013-05-25 05:07:00,29.7,26.6,29.91,SSE,157,2.7,-999.0,88,-99.99,,,0.00,Acu-Link.com,2013-05-25 11:07:00,
2013-05-25 05:22:00,28.4,25.3,29.91,East,90,0.0,-999.0,88,-99.99,,,0.00,Acu-Link.com,2013-05-25 11:22:00,
2013-05-25 05:37:00,27.3,26.8,29.92,WNW,292,0.0,-999.0,98,-99.99,,,0.00,Acu-Link.com,2013-05-25 11:37:00,
2013-05-25 05:52:00,27.7,26.5,29.92,ENE,67,1.1,-999.0,95,-99.99,,,0.00,Acu-Link.com,2013-05-25 11:52:00,
2013-05-25 06:08:00,28.0,26.0,29.93,NNE,22,2.2,-999.0,92,-99.99,,,0.00,Acu-Link.com,2013-05-25 12:08:00,
2013-05-25 06:23:00,32.0,26.5,29.94,ENE,67,0.0,-999.0,80,-99.99,,,0.00,Acu-Link.com,2013-05-25 12:23:00,
2013-05-25 06:38:00,37.6,29.4,29.94,ENE,67,1.7,-999.0,72,-99.99,,,0.00,Acu-Link.com,2013-05-25 12:38:00,
2013-05-25 06:53:00,42.1,31.6,29.94,ESE,112,1.7,-999.0,66,-99.99,,,0.00,Acu-Link.com,2013-05-25 12:53:00,
2013-05-25 07:09:00,45.3,33.1,29.95,SE,135,2.2,-999.0,62,-99.99,,,0.00,Acu-Link.com,2013-05-25 13:09:00,
2013-05-25 07:24:00,48.7,34.6,29.95,NE,45,2.2,-999.0,58,-99.99,,,0.00,Acu-Link.com,2013-05-25 13:24:00,
2013-05-25 07:39:00,52.5,33.4,29.94,SSE,157,3.2,-999.0,48,-99.99,,,0.00,Acu-Link.com,2013-05-25 13:39:00,
2013-05-25 07:55:00,54.3,34.0,29.94,SW,225,0.0,-999.0,46,-99.99,,,0.00,Acu-Link.com,2013-05-25 13:55:00,
2013-05-25 08:10:00,55.8,34.8,29.94,SE,135,2.2,-999.0,45,-99.99,,,0.00,Acu-Link.com,2013-05-25 14:10:00,
2013-05-25 08:25:00,57.7,33.5,29.93,SSW,202,1.7,-999.0,40,-99.99,,,0.00,Acu-Link.com,2013-05-25 14:25:00,
2013-05-25 08:40:00,63.5,33.9,29.93,SSW,202,2.2,-999.0,33,-99.99,,,0.00,Acu-Link.com,2013-05-25 14:40:00,
2013-05-25 08:56:00,65.3,33.9,29.93,SSE,157,2.2,-999.0,31,-99.99,,,0.00,Acu-Link.com,2013-05-25 14:56:00,
2013-05-25 09:11:00,57.0,31.6,29.93,South,180,1.1,-999.0,38,-99.99,,,0.00,Acu-Link.com,2013-05-25 15:11:00,
2013-05-25 09:26:00,58.8,31.9,29.91,NNE,22,4.2,-999.0,36,-99.99,,,0.00,Acu-Link.com,2013-05-25 15:26:00,
2013-05-25 09:42:00,60.6,32.8,29.92,NNE,22,4.7,-999.0,35,-99.99,,,0.00,Acu-Link.com,2013-05-25 15:42:00,
2013-05-25 09:57:00,62.8,30.9,29.90,East,90,4.7,-999.0,30,-99.99,,,0.00,Acu-Link.com,2013-05-25 15:57:00,
2013-05-25 10:12:00,63.5,33.1,29.89,North,0,2.2,-999.0,32,-99.99,,,0.00,Acu-Link.com,2013-05-25 16:12:00,
2013-05-25 10:27:00,64.8,33.5,29.88,ENE,67,2.7,-999.0,31,-99.99,,,0.00,Acu-Link.com,2013-05-25 16:27:00,
2013-05-25 10:43:00,67.1,31.1,29.89,South,180,4.2,-999.0,26,-99.99,,,0.00,Acu-Link.com,2013-05-25 16:43:00,
2013-05-25 10:58:00,70.0,31.5,29.89,ESE,112,3.2,-999.0,24,-99.99,,,0.00,Acu-Link.com,2013-05-25 16:58:00,
2013-05-25 11:13:00,70.9,15.8,29.87,ESE,112,3.2,-999.0,12,-99.99,,,0.00,Acu-Link.com,2013-05-25 17:13:00,
2013-05-25 11:28:00,72.3,-33.4,29.86,SE,135,3.7,-999.0,1,-99.99,,,0.00,Acu-Link.com,2013-05-25 17:28:00,
2013-05-25 11:43:00,73.9,-32.5,29.86,South,180,4.7,-999.0,1,-99.99,,,0.00,Acu-Link.com,2013-05-25 17:43:00,
2013-05-25 11:58:00,72.7,-33.2,29.86,SSE,157,4.7,-999.0,1,-99.99,,,0.00,Acu-Link.com,2013-05-25 17:58:00,
2013-05-25 12:14:00,75.7,-31.4,29.86,South,180,3.7,-999.0,1,-99.99,,,0.00,Acu-Link.com,2013-05-25 18:14:00,
2013-05-25 12:29:00,76.8,-30.7,29.84,SSE,157,4.7,-999.0,1,-99.99,,,0.00,Acu-Link.com,2013-05-25 18:29:00,
2013-05-25 12:44:00,76.5,-30.9,29.83,SSW,202,2.7,-999.0,1,-99.99,,,0.00,Acu-Link.com,2013-05-25 18:44:00,
2013-05-25 12:59:00,75.4,-31.6,29.83,SSE,157,6.8,-999.0,1,-99.99,,,0.00,Acu-Link.com,2013-05-25 18:59:00,
2013-05-25 13:14:00,79.9,-28.9,29.83,SW,225,4.7,-999.0,1,-99.99,,,0.00,Acu-Link.com,2013-05-25 19:14:00,
2013-05-25 13:30:00,79.9,-28.9,29.81,SW,225,5.3,-999.0,1,-99.99,,,0.00,Acu-Link.com,2013-05-25 19:30:00,
2013-05-25 13:45:00,78.4,-29.8,29.81,West,270,2.7,-999.0,1,-99.99,,,0.00,Acu-Link.com,2013-05-25 19:45:00,
2013-05-25 14:00:00,79.2,-29.3,29.81,WSW,247,4.2,-999.0,1,-99.99,,,0.00,Acu-Link.com,2013-05-25 20:00:00,
2013-05-25 14:15:00,80.1,-28.8,29.80,WSW,247,2.7,-999.0,1,-99.99,,,0.00,Acu-Link.com,2013-05-25 20:15:00,
2013-05-25 14:30:00,79.2,-29.3,29.81,NNW,337,3.7,-999.0,1,-99.99,,,0.00,Acu-Link.com,2013-05-25 20:30:00,
2013-05-25 14:46:00,79.9,-28.9,29.79,SW,225,2.2,-999.0,1,-99.99,,,0.00,Acu-Link.com,2013-05-25 20:46:00,
2013-05-25 15:01:00,80.4,-28.6,29.79,SW,225,2.2,-999.0,1,-99.99,,,0.00,Acu-Link.com,2013-05-25 21:01:00,
2013-05-25 15:16:00,80.8,-28.4,29.79,South,180,7.3,-999.0,1,-99.99,,,0.00,Acu-Link.com,2013-05-25 21:16:00,
2013-05-25 15:31:00,81.9,-27.7,29.78,SSW,202,4.7,-999.0,1,-99.99,,,0.00,Acu-Link.com,2013-05-25 21:31:00,
2013-05-25 15:46:00,80.4,-28.6,29.78,SSW,202,6.3,-999.0,1,-99.99,,,0.00,Acu-Link.com,2013-05-25 21:46:00,
2013-05-25 16:02:00,78.6,-29.7,29.79,SSW,202,7.8,-999.0,1,-99.99,,,0.00,Acu-Link.com,2013-05-25 22:02:00,
2013-05-25 16:19:00,79.0,-29.4,29.77,NNE,22,4.7,-999.0,1,-99.99,,,0.00,Acu-Link.com,2013-05-25 22:19:00,
2013-05-25 16:35:00,77.5,-30.3,29.76,NNW,337,4.2,-999.0,1,-99.99,,,0.00,Acu-Link.com,2013-05-25 22:35:00,
2013-05-25 16:50:00,79.3,-29.3,29.75,NNE,22,3.7,-999.0,1,-99.99,,,0.00,Acu-Link.com,2013-05-25 22:50:00,
2013-05-25 17:05:00,74.7,-32.0,29.76,SW,225,1.7,-999.0,1,-99.99,,,0.00,Acu-Link.com,2013-05-25 23:05:00,
2013-05-25 17:20:00,76.3,-31.0,29.75,SW,225,2.7,-999.0,1,-99.99,,,0.00,Acu-Link.com,2013-05-25 23:20:00,
2013-05-25 17:35:00,77.7,-30.2,29.76,SW,225,9.4,-999.0,1,-99.99,,,0.00,Acu-Link.com,2013-05-25 23:35:00,
2013-05-25 17:50:00,77.4,-30.4,29.75,NNE,22,5.3,-999.0,1,-99.99,,,0.00,Acu-Link.com,2013-05-25 23:50:00,
2013-05-25 18:06:00,77.4,-30.4,29.75,WSW,247,5.3,-999.0,1,-99.99,,,0.00,Acu-Link.com,2013-05-26 00:06:00,
2013-05-25 18:21:00,74.7,-32.0,29.75,West,270,2.7,-999.0,1,-99.99,,,0.00,Acu-Link.com,2013-05-26 00:21:00,
2013-05-25 18:36:00,72.7,-33.2,29.76,SSW,202,4.7,-999.0,1,-99.99,,,0.00,Acu-Link.com,2013-05-26 00:36:00,
2013-05-25 18:51:00,70.3,-34.6,29.76,West,270,2.7,-999.0,1,-99.99,,,0.00,Acu-Link.com,2013-05-26 00:51:00,
2013-05-25 19:06:00,68.9,-35.5,29.75,ESE,112,2.7,-999.0,1,-99.99,,,0.00,Acu-Link.com,2013-05-26 01:06:00,
2013-05-25 19:21:00,67.8,-36.1,29.75,WSW,247,2.2,-999.0,1,-99.99,,,0.00,Acu-Link.com,2013-05-26 01:21:00,
2013-05-25 19:37:00,65.5,2.7,29.76,SSE,157,1.7,-999.0,8,-99.99,,,0.00,Acu-Link.com,2013-05-26 01:37:00,
2013-05-25 19:52:00,63.3,11.6,29.78,SSE,157,2.2,-999.0,13,-99.99,,,0.00,Acu-Link.com,2013-05-26 01:52:00,
2013-05-25 20:07:00,61.3,10.1,29.77,ESE,112,0.0,-999.0,13,-99.99,,,0.00,Acu-Link.com,2013-05-26 02:07:00,
2013-05-25 20:23:00,59.0,18.0,29.77,NNW,337,0.0,-999.0,20,-99.99,,,0.00,Acu-Link.com,2013-05-26 02:23:00,
2013-05-25 20:38:00,56.8,26.5,29.78,NNE,22,0.0,-999.0,31,-99.99,,,0.00,Acu-Link.com,2013-05-26 02:38:00,
2013-05-25 20:53:00,54.1,27.7,29.79,NNE,22,2.2,-999.0,36,-99.99,,,0.00,Acu-Link.com,2013-05-26 02:53:00,
2013-05-25 21:08:00,54.9,27.1,29.81,NE,45,2.7,-999.0,34,-99.99,,,0.00,Acu-Link.com,2013-05-26 03:08:00,
2013-05-25 21:23:00,52.5,26.3,29.80,NW,315,3.7,-999.0,36,-99.99,,,0.00,Acu-Link.com,2013-05-26 03:23:00,
2013-05-25 21:39:00,52.7,29.1,29.81,ESE,112,2.2,-999.0,40,-99.99,,,0.00,Acu-Link.com,2013-05-26 03:39:00,
2013-05-25 21:54:00,52.7,28.4,29.81,NNE,22,3.2,-999.0,39,-99.99,,,0.00,Acu-Link.com,2013-05-26 03:54:00,
2013-05-25 22:09:00,52.2,29.2,29.81,NNW,337,0.0,-999.0,41,-99.99,,,0.00,Acu-Link.com,2013-05-26 04:09:00,
2013-05-25 22:24:00,52.5,29.5,29.82,NE,45,4.7,-999.0,41,-99.99,,,0.00,Acu-Link.com,2013-05-26 04:24:00,
2013-05-25 22:39:00,53.4,29.7,29.81,WNW,292,3.2,-999.0,40,-99.99,,,0.00,Acu-Link.com,2013-05-26 04:39:00,
2013-05-25 22:55:00,51.3,30.1,29.82,North,0,2.2,-999.0,44,-99.99,,,0.00,Acu-Link.com,2013-05-26 04:55:00,
2013-05-25 23:10:00,48.7,30.9,29.81,NNW,337,2.7,-999.0,50,-99.99,,,0.00,Acu-Link.com,2013-05-26 05:10:00,
2013-05-25 23:25:00,46.0,30.3,29.82,NE,45,2.2,-999.0,54,-99.99,,,0.00,Acu-Link.com,2013-05-26 05:25:00,
2013-05-25 23:41:00,43.3,29.9,29.82,ESE,112,0.0,-999.0,59,-99.99,,,0.00,Acu-Link.com,2013-05-26 05:41:00,
2013-05-25 23:56:00,41.4,27.7,29.82,ENE,67,3.7,-999.0,58,-99.99,,,0.00,Acu-Link.com,2013-05-26 05:56:00,